KGDV

Dawson Community Airport

Glendive, Montana, USA
METAR KGDV 180156Z AUTO 14004KT 6SM HZ CLR 30/08 A2997 RMK AO2 SLP128 T03000083
Observed Flight Rules
Aug-18 @ 01:56 UTC (32 minutes ago) Visual Flight Rules
Wind Visibility Clouds Conditions
140° at 4 knots 6 miles
  • Clear skies
  • Haze
Temperatures Readings
Current 30°C / 86°F
Dewpoint 8°C / 46°F
Humidity 25%
Altimeter 29.97" Hg
Pressure 1012.8 hPa
Elevation 749
METAR KGDV 180156Z AUTO 14004KT 6SM HZ CLR 30/08 A2997 RMK AO2 SLP128 T03000083
Observed Flight Rules
Aug-18 @ 01:56 UTC
(32 minutes ago)
VFR
Wind Visibility
140° at 4 knots 6 miles
Clouds
  • Clear skies
Conditions
  • Haze
Temperature Dewpoint
30°C / 86°F 8°C / 46°F
Humidity Altimeter Pressure
25% 29.97" Hg 1012.8 hPa